createdAt,value
2022-12-07T00:01:18.205Z,2.87
2022-12-07T00:06:22.130Z,2.30
2022-12-07T00:11:27.066Z,2.33
2022-12-07T00:16:32.646Z,2.47
2022-12-07T00:21:37.621Z,2.50
2022-12-07T00:26:44.970Z,2.63
2022-12-07T00:31:48.768Z,2.60
2022-12-07T00:36:52.428Z,2.10
2022-12-07T00:41:57.065Z,3.00
2022-12-07T00:47:00.284Z,2.87
2022-12-07T00:52:03.595Z,2.43
2022-12-07T00:57:08.318Z,3.40
2022-12-07T01:02:11.589Z,3.07
2022-12-07T01:07:14.882Z,3.13
2022-12-07T01:12:19.497Z,3.57
2022-12-07T01:17:22.783Z,3.60
2022-12-07T01:22:26.245Z,3.50
2022-12-07T01:27:30.861Z,3.50
2022-12-07T01:32:34.320Z,3.53
2022-12-07T01:37:38.233Z,3.60
2022-12-07T01:42:42.937Z,3.53
2022-12-07T01:47:49.038Z,3.20
2022-12-07T01:52:53.864Z,2.83
2022-12-07T01:57:59.085Z,3.57
2022-12-07T02:03:07.850Z,3.23
2022-12-07T02:08:13.083Z,3.60
2022-12-07T02:13:21.557Z,3.10
2022-12-07T02:18:33.100Z,3.70
2022-12-07T02:24:21.428Z,2.47
2022-12-07T02:29:32.590Z,3.10
2022-12-07T02:34:43.784Z,2.77
2022-12-07T02:39:51.911Z,3.00
2022-12-07T02:44:57.232Z,3.13
2022-12-07T02:50:00.940Z,2.90
2022-12-07T02:55:05.270Z,2.83
2022-12-07T03:00:13.050Z,2.83
2022-12-07T03:05:29.881Z,2.90
2022-12-07T03:10:42.643Z,3.63
2022-12-07T03:15:53.389Z,3.50
2022-12-07T03:21:02.313Z,3.17
2022-12-07T03:26:08.905Z,2.77
2022-12-07T03:31:19.170Z,2.60
2022-12-07T03:36:28.755Z,2.93
2022-12-07T03:41:34.442Z,3.37
2022-12-07T03:46:45.221Z,2.83
2022-12-07T03:51:55.538Z,3.40
2022-12-07T03:57:00.695Z,2.87
2022-12-07T04:02:07.886Z,2.70
2022-12-07T04:07:11.782Z,2.50
2022-12-07T04:12:15.200Z,2.47
2022-12-07T04:17:19.808Z,2.47
2022-12-07T04:22:23.105Z,2.30
2022-12-07T04:27:26.340Z,2.80
2022-12-07T04:32:31.139Z,2.90
2022-12-07T04:37:34.374Z,2.87
2022-12-07T04:42:37.926Z,2.63
2022-12-07T04:47:42.961Z,2.50
2022-12-07T04:52:46.228Z,2.70
2022-12-07T04:57:49.540Z,2.23
2022-12-07T05:02:54.206Z,2.57
2022-12-07T05:07:59.030Z,2.63
2022-12-07T05:13:02.386Z,2.73
2022-12-07T05:18:07.180Z,2.53
2022-12-07T05:23:10.501Z,2.07
2022-12-07T05:28:14.022Z,2.10
2022-12-07T05:33:19.939Z,2.60
2022-12-07T05:38:23.415Z,2.73
2022-12-07T05:43:26.720Z,2.27
2022-12-07T05:48:31.586Z,2.03
2022-12-07T05:53:34.840Z,2.00
2022-12-07T05:58:55.219Z,2.13
2022-12-07T06:03:59.844Z,1.90
2022-12-07T06:09:03.160Z,1.97
2022-12-07T06:14:06.471Z,2.10
2022-12-07T06:19:11.284Z,1.90
2022-12-07T06:24:16.528Z,1.70
2022-12-07T06:29:20.334Z,1.80
2022-12-07T06:34:26.404Z,1.83
2022-12-07T06:39:30.981Z,1.90
2022-12-07T06:44:34.352Z,1.80
2022-12-07T06:49:39.106Z,2.03
2022-12-07T06:54:42.376Z,2.00
2022-12-07T06:59:46.162Z,2.00
2022-12-07T07:04:50.876Z,1.73
2022-12-07T07:09:54.219Z,1.80
2022-12-07T07:14:57.690Z,1.90
2022-12-07T07:20:02.958Z,2.00
2022-12-07T07:25:06.920Z,1.73
2022-12-07T07:30:11.168Z,2.20
2022-12-07T07:35:16.271Z,1.90
2022-12-07T07:40:19.632Z,1.97
2022-12-07T07:45:25.479Z,1.87
2022-12-07T07:50:30.136Z,1.40
2022-12-07T07:55:33.460Z,1.80
2022-12-07T08:00:37.060Z,1.83
2022-12-07T08:05:41.837Z,1.93
2022-12-07T08:10:45.379Z,1.67
2022-12-07T08:15:50.306Z,2.00
2022-12-07T08:21:01.278Z,1.90
2022-12-07T08:26:05.407Z,1.70
2022-12-07T08:31:10.771Z,1.97
2022-12-07T08:36:15.966Z,2.00
2022-12-07T08:41:19.369Z,1.97
2022-12-07T08:46:27.806Z,1.97
2022-12-07T08:51:32.616Z,2.03
2022-12-07T08:56:37.141Z,1.80
2022-12-07T09:01:40.592Z,1.97
2022-12-07T09:06:45.737Z,1.77
2022-12-07T09:11:49.258Z,1.80
2022-12-07T09:16:52.802Z,2.10
2022-12-07T09:21:57.418Z,2.00
2022-12-07T09:27:01.093Z,1.90
2022-12-07T09:32:08.423Z,2.03
2022-12-07T09:37:16.223Z,2.03
2022-12-07T09:42:30.882Z,2.57
2022-12-07T09:47:36.099Z,2.97
2022-12-07T09:52:41.755Z,2.70
2022-12-07T09:57:45.783Z,2.47
2022-12-07T10:02:52.119Z,2.40
2022-12-07T10:07:57.053Z,2.77
2022-12-07T10:13:02.838Z,2.33
2022-12-07T10:18:06.589Z,2.30
2022-12-07T10:23:17.966Z,2.47
2022-12-07T10:28:21.759Z,2.00
2022-12-07T10:33:33.804Z,2.10
2022-12-07T10:38:52.337Z,2.10
2022-12-07T10:43:58.303Z,1.83
2022-12-07T10:49:14.087Z,2.17
2022-12-07T10:54:27.755Z,2.10
2022-12-07T10:59:52.534Z,2.10
2022-12-07T11:05:09.354Z,2.20
2022-12-07T11:10:21.183Z,2.17
2022-12-07T11:15:31.096Z,2.30
2022-12-07T11:20:47.684Z,2.00
2022-12-07T11:25:59.494Z,2.30
2022-12-07T11:31:13.330Z,2.13
2022-12-07T11:36:33.589Z,1.90
2022-12-07T11:41:42.352Z,1.80
2022-12-07T11:46:52.007Z,1.80
2022-12-07T11:52:00.866Z,1.70
2022-12-07T11:57:15.573Z,2.27
2022-12-07T12:02:26.837Z,1.80
2022-12-07T12:19:13.913Z,1.90
2022-12-07T12:24:21.209Z,1.77
2022-12-07T12:29:33.155Z,1.93
2022-12-07T12:34:50.109Z,1.77
2022-12-07T12:40:31.864Z,2.17
2022-12-07T12:45:36.771Z,2.00
2022-12-07T12:50:40.725Z,2.47
2022-12-07T12:56:12.106Z,1.63
2022-12-07T13:01:45.999Z,1.77
2022-12-07T13:06:49.607Z,2.13
2022-12-07T13:12:03.894Z,1.97
2022-12-07T13:17:11.125Z,1.87
2022-12-07T13:22:49.191Z,1.90
2022-12-07T13:27:59.694Z,1.73
2022-12-07T13:33:06.162Z,2.03
2022-12-07T13:38:24.604Z,1.97
2022-12-07T13:43:28.017Z,2.00
2022-12-07T13:48:37.481Z,1.80
2022-12-07T13:53:49.307Z,1.77
2022-12-07T13:58:53.307Z,1.70
2022-12-07T14:03:58.000Z,2.00
2022-12-07T14:09:17.823Z,2.37
2022-12-07T14:14:24.083Z,2.13
2022-12-07T14:19:53.318Z,2.00
2022-12-07T14:25:22.357Z,1.97
2022-12-07T14:30:28.727Z,1.60
2022-12-07T14:35:34.729Z,1.97
2022-12-07T14:40:38.167Z,2.20
2022-12-07T14:45:42.029Z,2.20
2022-12-07T14:56:16.439Z,2.13
2022-12-07T15:01:19.869Z,2.30
2022-12-07T15:06:24.693Z,2.53
2022-12-07T15:11:28.118Z,2.13
2022-12-07T15:16:46.324Z,2.40
2022-12-07T15:21:57.266Z,2.57
2022-12-07T15:27:01.091Z,2.53
2022-12-07T15:32:04.536Z,3.10
2022-12-07T15:37:09.536Z,2.80
2022-12-07T15:42:13.082Z,2.73
2022-12-07T15:47:16.430Z,2.53
2022-12-07T15:52:21.322Z,2.70
2022-12-07T15:57:25.615Z,3.13
2022-12-07T16:02:29.305Z,2.83
2022-12-07T16:07:34.077Z,2.77
2022-12-07T16:12:37.388Z,3.03
2022-12-07T16:17:40.844Z,2.70
2022-12-07T16:22:45.671Z,2.10
2022-12-07T16:27:48.983Z,2.23
2022-12-07T16:32:52.561Z,2.70
2022-12-07T16:37:57.393Z,2.63
2022-12-07T16:43:04.289Z,2.77
2022-12-07T16:48:08.181Z,2.50
2022-12-07T16:53:13.594Z,2.23
2022-12-07T16:58:19.960Z,3.23
2022-12-07T17:03:23.430Z,3.30
2022-12-07T17:08:28.266Z,2.80
2022-12-07T17:13:48.916Z,2.70
2022-12-07T17:18:52.365Z,2.93
2022-12-07T17:23:57.211Z,2.80
2022-12-07T17:29:01.166Z,3.17
2022-12-07T17:34:05.004Z,2.83
2022-12-07T17:39:12.800Z,3.20
2022-12-07T17:44:24.691Z,3.50
2022-12-07T17:49:31.351Z,2.70
2022-12-07T17:54:37.184Z,2.90
2022-12-07T17:59:41.220Z,2.70
2022-12-07T18:04:45.966Z,2.80
2022-12-07T18:09:52.851Z,2.60
2022-12-07T18:14:57.311Z,2.70
2022-12-07T18:20:01.186Z,2.57
2022-12-07T18:25:07.118Z,2.80
2022-12-07T18:30:12.710Z,2.47
2022-12-07T18:35:16.863Z,2.87
2022-12-07T18:40:22.741Z,3.13
2022-12-07T18:45:29.960Z,2.63
2022-12-07T18:50:35.978Z,2.80
2022-12-07T18:55:42.324Z,2.90
2022-12-07T19:00:46.666Z,2.10
2022-12-07T19:05:51.436Z,2.90
2022-12-07T19:11:20.847Z,2.30
2022-12-07T19:16:28.272Z,2.60
2022-12-07T19:21:32.424Z,2.70
2022-12-07T19:26:39.987Z,2.77
2022-12-07T19:31:45.120Z,2.43
2022-12-07T19:36:51.726Z,2.13
2022-12-07T19:41:59.543Z,2.47
2022-12-07T19:47:06.050Z,2.13
2022-12-07T19:52:14.042Z,2.63
2022-12-07T19:57:24.391Z,2.20
2022-12-07T20:02:29.132Z,1.90
2022-12-07T20:07:37.842Z,2.27
2022-12-07T20:13:01.953Z,2.43
2022-12-07T20:18:06.974Z,2.33
2022-12-07T20:23:11.902Z,2.33
2022-12-07T20:28:18.036Z,2.37
2022-12-07T20:33:23.361Z,2.70
2022-12-07T20:38:29.642Z,2.30
2022-12-07T20:43:36.407Z,2.47
2022-12-07T20:48:40.839Z,1.90
2022-12-07T20:53:45.528Z,2.50
2022-12-07T20:58:51.291Z,2.83
2022-12-07T21:03:56.768Z,2.30
2022-12-07T21:09:02.683Z,2.43
2022-12-07T21:14:07.838Z,2.73
2022-12-07T21:19:11.845Z,2.67
2022-12-07T21:24:15.200Z,2.47
2022-12-07T21:29:29.795Z,2.67
2022-12-07T21:34:43.614Z,2.23
2022-12-07T21:39:47.026Z,2.20
2022-12-07T21:44:51.706Z,2.07
2022-12-07T21:49:55.041Z,2.20
2022-12-07T21:54:58.353Z,2.33
2022-12-07T22:00:03.100Z,2.50
2022-12-07T22:05:09.013Z,2.17
2022-12-07T22:10:12.370Z,2.33
2022-12-07T22:15:17.331Z,2.20
2022-12-07T22:20:22.001Z,2.53
2022-12-07T22:25:25.482Z,1.87
2022-12-07T22:30:30.495Z,2.23
2022-12-07T22:35:33.836Z,2.00
2022-12-07T22:40:39.037Z,2.23
2022-12-07T22:45:43.823Z,1.83
2022-12-07T22:50:47.371Z,1.70
2022-12-07T22:55:50.696Z,1.70
2022-12-07T23:00:55.666Z,1.83
2022-12-07T23:05:58.977Z,1.43
2022-12-07T23:11:02.337Z,1.77
2022-12-07T23:16:14.161Z,1.67
2022-12-07T23:21:17.686Z,2.07
2022-12-07T23:26:21.078Z,2.23
2022-12-07T23:31:26.209Z,2.97
2022-12-07T23:36:30.246Z,3.30
2022-12-07T23:41:33.607Z,3.43
2022-12-07T23:46:38.389Z,3.37
2022-12-07T23:51:42.148Z,2.30
2022-12-07T23:56:45.556Z,1.70
